Ft. Stewart, GA

10:08 AM EDT on April 21, 2018 (GMT -0400)
Wright Army Air Field

Weather History for KLHW - January, 2013

Change the Weather History Date:

Tuesday, January 15, 2013

  Actual Average Record
Temperature  
Mean Temperature 66 °F -  
Max Temperature 79 °F 60 °F 79 °F (1974)
Min Temperature 53 °F 39 °F 21 °F (2011)
Cooling Degree Days 1    
Growing Degree Days 16 (Base 50)    
Moisture  
Dew Point 57 °F    
Average Humidity 96    
Maximum Humidity 100    
Minimum Humidity 48    
Precipitation  
Precipitation 0.00 in - - ()
Sea Level Pressure  
Sea Level Pressure 30.12 in    
Wind  
Wind Speed 0 mph (South)    
Max Wind Speed 12 mph    
Max Gust Speed -    
Visibility 3 miles    
Events Fog    
Averages and records for this station are not official NWS values.
T = Trace of Precipitation, MM = Missing Value Source: NWS Daily Summary

Daily Weather History Graph

Daily Weather History Graph

Search for Another Location

Airport or City:

Astronomy

Jan. 15, 2013 Rise Set
Actual Time 7:26 AM EST 5:45 PM EST
Civil Twilight 7:00 AM EST 6:11 PM EST
Nautical Twilight 6:30 AM EST 6:41 PM EST
Astronomical Twilight 6:01 AM EST 7:10 PM EST
Moon 9:50 AM EST (1/15) 10:12 PM EST (1/15)
Length of Visible Light 11h 11m
Length of Day
10h 18m
Waxing Crescent, 19% of the Moon is Illuminated
Jan 15
Waxing Crescent
Jan 18
First Quarter
Jan 26
Full
Feb 3
Last Quarter
Feb 10
New

Hourly Weather History & Observations

Time (EST) Temp. Dew Point Humidity Pressure Visibility Wind Dir Wind Speed Gust Speed Precip Events Conditions
12:55 AM 62.6 °F 60.6 °F 93% 30.16 in 10.0 mi Calm Calm - N/A   Clear
2:18 AM 59.0 °F 59.0 °F 100% 30.15 in 9.0 mi Calm Calm - N/A   Partly Cloudy
2:25 AM 59.0 °F 59.0 °F 100% 30.15 in 8.0 mi Calm Calm - N/A   Clear
2:45 AM 59.0 °F 59.0 °F 100% 30.15 in 2.5 mi Calm Calm - N/A   Clear
2:48 AM 59.0 °F 59.0 °F 100% 30.14 in 1.8 mi Calm Calm - N/A   Clear
2:49 AM 59.0 °F 59.0 °F 100% 30.14 in 1.5 mi Calm Calm - N/A   Clear
2:51 AM 57.2 °F 57.2 °F 100% 30.14 in 1.5 mi Calm Calm - N/A   Clear
2:53 AM 57.2 °F 57.2 °F 100% 30.14 in 1.8 mi Calm Calm - N/A   Clear
2:54 AM 57.2 °F 57.2 °F 100% 30.14 in 2.0 mi Calm Calm - N/A   Clear
2:55 AM 57.9 °F 57.9 °F 100% 30.14 in 3.0 mi Calm Calm - N/A   Clear
3:01 AM 57.2 °F 57.2 °F 100% 30.14 in 2.5 mi Calm Calm - N/A   Clear
3:07 AM 57.2 °F 57.2 °F 100% 30.14 in 2.0 mi Calm Calm - N/A   Clear
3:09 AM 57.2 °F 57.2 °F 100% 30.14 in 2.5 mi Calm Calm - N/A   Clear
3:10 AM 57.2 °F 57.2 °F 100% 30.14 in 3.0 mi Calm Calm - N/A   Clear
3:16 AM 57.2 °F 57.2 °F 100% 30.14 in 2.5 mi Calm Calm - N/A   Clear
3:17 AM 57.2 °F 57.2 °F 100% 30.14 in 1.8 mi Calm Calm - N/A   Clear
3:18 AM 57.2 °F 57.2 °F 100% 30.14 in 1.5 mi Calm Calm - N/A   Clear
3:19 AM 57.2 °F 57.2 °F 100% 30.14 in 1.2 mi Calm Calm - N/A   Clear
3:20 AM 57.2 °F 57.2 °F 100% 30.14 in 1.0 mi Calm Calm - N/A   Clear
3:24 AM 57.2 °F 57.2 °F 100% 30.14 in 1.0 mi Calm Calm - N/A   Clear
3:25 AM 57.2 °F 57.2 °F 100% 30.14 in 1.2 mi Calm Calm - N/A   Clear
3:26 AM 57.2 °F 57.2 °F 100% 30.14 in 1.5 mi Calm Calm - N/A   Clear
3:27 AM 57.2 °F 57.2 °F 100% 30.14 in 1.8 mi Calm Calm - N/A   Clear
3:28 AM 57.2 °F 57.2 °F 100% 30.14 in 2.5 mi Calm Calm - N/A   Clear
3:29 AM 57.2 °F 57.2 °F 100% 30.14 in 4.0 mi Calm Calm - N/A   Clear
3:48 AM 57.2 °F 57.2 °F 100% 30.13 in 2.0 mi Calm Calm - N/A   Clear
3:49 AM 57.2 °F 57.2 °F 100% 30.13 in 1.8 mi Calm Calm - N/A   Clear
3:50 AM 57.2 °F 57.2 °F 100% 30.13 in 1.5 mi Calm Calm - N/A   Clear
3:51 AM 57.2 °F 57.2 °F 100% 30.13 in 1.2 mi Calm Calm - N/A   Clear
3:53 AM 57.2 °F 57.2 °F 100% 30.13 in 1.0 mi Calm Calm - N/A   Clear
3:54 AM 57.2 °F 57.2 °F 100% 30.13 in 0.8 mi Calm Calm - N/A   Clear
3:55 AM 56.5 °F 56.5 °F 100% 30.13 in 0.8 mi Calm Calm - N/A   Clear
4:00 AM 57.2 °F 57.2 °F 100% 30.13 in 0.5 mi Calm Calm - N/A Fog Fog
4:09 AM 57.2 °F 57.2 °F 100% 30.13 in 0.5 mi Calm Calm - N/A Fog Fog
4:15 AM 57.2 °F 57.2 °F 100% 30.13 in 0.8 mi Calm Calm - N/A   Clear
4:17 AM 55.4 °F 55.4 °F 100% 30.13 in 0.5 mi Calm Calm - N/A Fog Fog
4:19 AM 55.4 °F 55.4 °F 100% 30.13 in 0.5 mi Calm Calm - N/A Fog Fog
4:22 AM 55.4 °F 55.4 °F 100% 30.13 in 0.5 mi Calm Calm - N/A Fog Fog
4:25 AM 55.4 °F 55.4 °F 100% 30.13 in 0.8 mi Calm Calm - N/A   Clear
4:28 AM 55.4 °F 55.4 °F 100% 30.12 in 1.0 mi Calm Calm - N/A   Clear
4:31 AM 55.4 °F 55.4 °F 100% 30.12 in 0.8 mi Calm Calm - N/A   Clear
4:34 AM 55.4 °F 55.4 °F 100% 30.12 in 0.5 mi Calm Calm - N/A Fog Fog
4:35 AM 55.4 °F 55.4 °F 100% 30.13 in 0.5 mi Calm Calm - N/A Fog Fog
4:50 AM 55.4 °F 55.4 °F 100% 30.12 in 0.5 mi Calm Calm - N/A Fog Fog
4:53 AM 55.4 °F 55.4 °F 100% 30.12 in 0.8 mi Calm Calm - N/A   Clear
4:55 AM 55.4 °F 55.4 °F 100% 30.12 in 0.8 mi Calm Calm - N/A   Clear
4:56 AM 55.4 °F 55.4 °F 100% 30.12 in 1.0 mi Calm Calm - N/A   Clear
4:59 AM 55.4 °F 55.4 °F 100% 30.12 in 1.2 mi Calm Calm - N/A   Clear
5:02 AM 55.4 °F 55.4 °F 100% 30.12 in 1.5 mi Calm Calm - N/A   Clear
5:05 AM 55.4 °F 55.4 °F 100% 30.12 in 1.8 mi Calm Calm - N/A   Clear
5:15 AM 55.4 °F 55.4 °F 100% 30.12 in 1.8 mi Calm Calm - N/A   Clear
5:16 AM 55.4 °F 55.4 °F 100% 30.12 in 2.0 mi Calm Calm - N/A   Clear
5:18 AM 55.4 °F 55.4 °F 100% 30.12 in 3.0 mi Calm Calm - N/A   Clear
5:37 AM 55.4 °F 55.4 °F 100% 30.11 in 9.0 mi Calm Calm - N/A   Clear
5:55 AM 55.0 °F 55.0 °F 100% 30.12 in 7.0 mi Calm Calm - N/A   Clear
5:57 AM 55.4 °F 55.4 °F 100% 30.12 in 6.0 mi Calm Calm - N/A   Clear
6:02 AM 55.4 °F 55.4 °F 100% 30.12 in 2.5 mi Calm Calm - N/A   Clear
6:04 AM 55.4 °F 55.4 °F 100% 30.11 in 1.8 mi Calm Calm - N/A   Clear
6:05 AM 55.4 °F 55.4 °F 100% 30.11 in 1.5 mi Calm Calm - N/A   Clear
6:06 AM 55.4 °F 55.4 °F 100% 30.12 in 1.2 mi Calm Calm - N/A   Clear
6:07 AM 55.4 °F 55.4 °F 100% 30.12 in 1.2 mi Calm Calm - N/A   Clear
6:09 AM 55.4 °F 55.4 °F 100% 30.12 in 1.0 mi Calm Calm - N/A   Clear
6:15 AM 55.4 °F 55.4 °F 100% 30.12 in 0.8 mi Calm Calm - N/A   Clear
6:17 AM 55.4 °F 55.4 °F 100% 30.12 in 0.5 mi Calm Calm - N/A Fog Fog
6:23 AM 55.4 °F 55.4 °F 100% 30.12 in 0.5 mi Calm Calm - N/A Fog Fog
6:32 AM 53.6 °F 53.6 °F 100% 30.11 in 0.8 mi Calm Calm - N/A   Clear
6:36 AM 53.6 °F 53.6 °F 100% 30.11 in 1.0 mi Calm Calm - N/A   Clear
6:39 AM 53.6 °F 53.6 °F 100% 30.11 in 1.2 mi Calm Calm - N/A   Clear
6:41 AM 53.6 °F 53.6 °F 100% 30.11 in 1.0 mi Calm Calm - N/A   Clear
6:44 AM 53.6 °F 53.6 °F 100% 30.12 in 0.8 mi Calm Calm - N/A   Clear
6:48 AM 53.6 °F 53.6 °F 100% 30.12 in 0.5 mi Calm Calm - N/A Fog Fog
6:49 AM 53.6 °F 53.6 °F 100% 30.12 in 0.5 mi Calm Calm - N/A Fog Fog
6:55 AM 54.0 °F 54.0 °F 100% 30.12 in 0.5 mi Calm Calm - N/A Fog Fog
6:58 AM 53.6 °F 53.6 °F 100% 30.12 in 0.8 mi Calm Calm - N/A   Clear
7:02 AM 53.6 °F 53.6 °F 100% 30.12 in 1.0 mi Calm Calm - N/A   Clear
7:03 AM 53.6 °F 53.6 °F 100% 30.12 in 0.8 mi Calm Calm - N/A   Clear
7:05 AM 53.6 °F 53.6 °F 100% 30.12 in 1.0 mi Calm Calm - N/A   Clear
7:08 AM 53.6 °F 53.6 °F 100% 30.12 in 0.8 mi Calm Calm - N/A   Clear
7:10 AM 53.6 °F 53.6 °F 100% 30.12 in 0.5 mi Calm Calm - N/A Fog Fog
7:11 AM 53.6 °F 53.6 °F 100% 30.12 in 0.5 mi Calm Calm - N/A Fog Fog
7:27 AM 53.6 °F 53.6 °F 100% 30.12 in 0.2 mi Calm Calm - N/A Fog Fog
7:28 AM 53.6 °F 53.6 °F 100% 30.12 in 0.2 mi Calm Calm - N/A Fog Fog
7:34 AM 53.6 °F 53.6 °F 100% 30.12 in 0.8 mi Calm Calm - N/A   Clear
7:35 AM 53.6 °F 53.6 °F 100% 30.12 in 1.2 mi Calm Calm - N/A   Clear
7:36 AM 53.6 °F 53.6 °F 100% 30.12 in 2.5 mi Calm Calm - N/A   Clear
7:37 AM 53.6 °F 53.6 °F 100% 30.12 in 4.0 mi Calm Calm - N/A   Clear
7:53 AM 53.6 °F 53.6 °F 100% 30.13 in 2.5 mi Calm Calm - N/A   Clear
7:55 AM 53.8 °F 53.8 °F 100% 30.14 in 2.5 mi Calm Calm - N/A   Clear
7:58 AM 53.6 °F 53.6 °F 100% 30.14 in 3.0 mi Calm Calm - N/A   Clear
8:07 AM 55.4 °F 55.4 °F 100% 30.14 in 2.5 mi Calm Calm - N/A   Clear
8:10 AM 55.4 °F 55.4 °F 100% 30.14 in 3.0 mi Calm Calm - N/A   Clear
8:18 AM 57.2 °F 57.2 °F 100% 30.15 in 7.0 mi Calm Calm - N/A   Partly Cloudy
8:55 AM 61.0 °F 61.0 °F 100% 30.15 in 10.0 mi Calm Calm - N/A   Clear
9:55 AM 65.5 °F 65.5 °F 100% 30.16 in 10.0 mi Calm Calm - N/A   Clear
10:55 AM 72.9 °F 63.0 °F 71% 30.15 in 10.0 mi Calm Calm - N/A   Clear
11:55 AM 76.3 °F 61.5 °F 60% 30.12 in 10.0 mi Variable 5.8 mph - N/A   Clear
12:55 PM 78.1 °F 59.9 °F 53% 30.08 in 10.0 mi South 11.5 mph - N/A   Clear
1:55 PM 78.1 °F 59.0 °F 52% 30.06 in 10.0 mi Calm Calm - N/A   Scattered Clouds
2:55 PM 79.7 °F 58.3 °F 48% 30.05 in 10.0 mi SSW 10.4 mph - N/A   Mostly Cloudy
3:55 PM 78.8 °F 57.7 °F 48% 30.05 in 10.0 mi SSW 8.1 mph - N/A   Partly Cloudy
4:55 PM 76.6 °F 58.8 °F 54% 30.06 in 10.0 mi Calm Calm - N/A   Clear
5:55 PM 72.9 °F 59.7 °F 63% 30.07 in 10.0 mi SE 4.6 mph - N/A   Clear
6:55 PM 69.8 °F 63.3 °F 80% 30.08 in 10.0 mi Calm Calm - N/A   Clear
7:55 PM 67.6 °F 63.5 °F 87% 30.08 in 10.0 mi SE 4.6 mph - N/A   Clear
8:55 PM 66.7 °F 62.4 °F 86% 30.07 in 10.0 mi Calm Calm - N/A   Clear
9:55 PM 66.6 °F 62.8 °F 88% 30.06 in 10.0 mi Calm Calm - N/A   Overcast
10:55 PM 66.2 °F 63.3 °F 90% 30.05 in 10.0 mi Calm Calm - N/A   Partly Cloudy
11:55 PM 64.9 °F 64.0 °F 97% 30.06 in 10.0 mi Calm Calm - N/A   Clear